Pleasant Hill, Ohio
Current Conditions -  °F | °C
As of 6:56 PM on Monday 22 Dec 2014 (Local Time) from KDAY Reporting Station
Overcast Overcast  
Wind Chill: 40°   Ceiling: 9000
Heat Index: 46°   Visibility: 10mi
Dew Point: 37°   Wind: 14mph
Humidity: 71%   Direction: 110°ESE
Pressure: 29.81"   Gusts: NA
Location:  40.05°N, 84.34°W
Report Text: KDAY 222356Z 11012KT 10SM OVC090 08/03 A2981 RMK AO2 SLP101 T00780028 10083 20061 58010
Loading
Personal Weather Stations






























Interactive Weather Map New forecast layout! Learn more

10-Day Weather Forecast

Advertisements
Track Severe Weather on mobile